createdAt,value
2018-10-09T00:01:01.459Z,24.57
2018-10-09T00:03:30.000Z,24.53
2018-10-09T00:05:58.585Z,24.23
2018-10-09T00:08:27.145Z,24.37
2018-10-09T00:10:55.900Z,25.00
2018-10-09T00:13:24.612Z,23.37
2018-10-09T00:15:53.313Z,23.47
2018-10-09T00:18:22.057Z,23.93
2018-10-09T00:20:50.628Z,23.03
2018-10-09T00:23:19.203Z,23.27
2018-10-09T00:25:48.143Z,23.53
2018-10-09T00:28:16.686Z,25.07
2018-10-09T00:30:45.243Z,25.33
2018-10-09T00:33:13.926Z,25.17
2018-10-09T00:35:42.561Z,24.27
2018-10-09T00:38:11.150Z,23.20
2018-10-09T00:40:39.685Z,24.23
2018-10-09T00:43:08.238Z,24.40
2018-10-09T00:45:37.376Z,25.07
2018-10-09T00:48:05.956Z,24.60
2018-10-09T00:50:34.785Z,25.13
2018-10-09T00:53:04.001Z,24.30
2018-10-09T00:55:32.689Z,22.53
2018-10-09T00:58:01.312Z,22.93
2018-10-09T01:00:32.206Z,22.80
2018-10-09T01:03:00.801Z,23.17
2018-10-09T01:05:29.333Z,23.03
2018-10-09T01:07:58.151Z,24.33
2018-10-09T01:10:26.709Z,24.07
2018-10-09T01:12:55.385Z,24.87
2018-10-09T01:15:23.988Z,25.67
2018-10-09T01:17:52.620Z,27.13
2018-10-09T01:20:26.521Z,25.83
2018-10-09T01:22:55.161Z,26.03
2018-10-09T01:25:23.827Z,28.07
2018-10-09T01:27:52.389Z,26.17
2018-10-09T01:30:20.921Z,26.73
2018-10-09T01:32:49.520Z,28.00
2018-10-09T01:35:18.065Z,29.67
2018-10-09T01:37:46.754Z,30.03
2018-10-09T01:40:15.484Z,31.47
2018-10-09T01:42:44.039Z,31.03
2018-10-09T01:45:12.618Z,30.20
2018-10-09T01:47:41.517Z,30.17
2018-10-09T01:50:14.282Z,29.43
2018-10-09T01:52:43.125Z,29.73
2018-10-09T01:55:11.709Z,31.40
2018-10-09T01:57:40.295Z,29.87
2018-10-09T02:00:09.885Z,28.10
2018-10-09T02:02:38.563Z,27.97
2018-10-09T02:05:07.493Z,29.10
2018-10-09T02:07:36.273Z,29.73
2018-10-09T02:10:05.493Z,27.03
2018-10-09T02:12:34.053Z,28.13
2018-10-09T02:15:03.120Z,28.67
2018-10-09T02:17:31.673Z,27.80
2018-10-09T02:20:00.222Z,28.43
2018-10-09T02:22:28.741Z,28.73
2018-10-09T02:24:57.554Z,29.07
2018-10-09T02:27:26.186Z,29.70
2018-10-09T02:29:54.742Z,29.83
2018-10-09T02:32:23.298Z,30.27
2018-10-09T02:34:51.842Z,30.53
2018-10-09T02:37:20.409Z,30.57
2018-10-09T02:39:49.041Z,32.30
2018-10-09T02:42:17.778Z,34.30
2018-10-09T02:44:46.466Z,30.80
2018-10-09T02:47:15.018Z,29.90
2018-10-09T02:49:43.563Z,28.70
2018-10-09T02:52:12.148Z,28.47
2018-10-09T02:54:40.694Z,29.03
2018-10-09T02:57:09.244Z,30.87
2018-10-09T02:59:38.283Z,32.40
2018-10-09T03:02:07.011Z,32.20
2018-10-09T03:04:35.590Z,30.10
2018-10-09T03:07:04.167Z,27.87
2018-10-09T03:09:32.732Z,29.47
2018-10-09T03:12:01.289Z,30.87
2018-10-09T03:14:29.837Z,31.47
2018-10-09T03:16:58.834Z,31.57
2018-10-09T03:19:27.738Z,30.53
2018-10-09T03:21:56.306Z,31.30
2018-10-09T03:24:24.885Z,30.67
2018-10-09T03:26:53.441Z,30.17
2018-10-09T03:29:22.021Z,31.80
2018-10-09T03:31:50.568Z,31.57
2018-10-09T03:34:19.213Z,30.40
2018-10-09T03:36:47.862Z,28.57
2018-10-09T03:39:16.422Z,30.97
2018-10-09T03:41:45.042Z,31.57
2018-10-09T03:44:13.609Z,31.20
2018-10-09T03:46:42.162Z,33.30
2018-10-09T03:49:10.750Z,35.50
2018-10-09T03:51:39.412Z,35.77
2018-10-09T03:54:08.126Z,34.87
2018-10-09T03:56:36.762Z,32.27
2018-10-09T03:59:05.454Z,32.80
2018-10-09T04:01:34.031Z,32.57
2018-10-09T04:04:02.571Z,33.30
2018-10-09T04:06:31.257Z,33.83
2018-10-09T04:09:00.229Z,33.33
2018-10-09T04:11:29.108Z,33.70
2018-10-09T04:13:57.639Z,33.63
2018-10-09T04:16:26.190Z,33.67
2018-10-09T04:18:54.909Z,36.47
2018-10-09T04:21:23.469Z,36.37
2018-10-09T04:23:52.090Z,38.80
2018-10-09T04:26:20.697Z,36.67
2018-10-09T04:28:49.370Z,41.07
2018-10-09T04:31:17.952Z,40.63
2018-10-09T04:33:46.522Z,40.17
2018-10-09T04:36:15.065Z,40.47
2018-10-09T04:38:43.649Z,40.27
2018-10-09T04:41:12.286Z,40.87
2018-10-09T04:43:40.981Z,41.77
2018-10-09T04:46:09.525Z,42.13
2018-10-09T04:48:38.078Z,43.10
2018-10-09T04:51:06.629Z,43.53
2018-10-09T04:53:35.418Z,43.53
2018-10-09T04:56:04.033Z,47.30
2018-10-09T04:58:32.822Z,45.53
2018-10-09T05:01:01.469Z,46.60
2018-10-09T05:03:30.103Z,46.67
2018-10-09T05:05:58.645Z,49.07
2018-10-09T05:08:27.221Z,50.80
2018-10-09T05:10:55.768Z,55.03
2018-10-09T05:13:24.333Z,53.13
2018-10-09T05:15:52.989Z,56.23
2018-10-09T05:18:21.582Z,55.00
2018-10-09T05:20:50.374Z,55.67
2018-10-09T05:23:19.096Z,57.07
2018-10-09T05:25:47.822Z,59.83
2018-10-09T05:28:16.389Z,62.57
2018-10-09T05:30:44.948Z,63.53
2018-10-09T05:33:13.605Z,64.07
2018-10-09T05:35:42.239Z,61.53
2018-10-09T05:38:10.967Z,63.20
2018-10-09T05:40:39.538Z,61.67
2018-10-09T05:43:08.121Z,58.67
2018-10-09T05:45:38.597Z,60.33
2018-10-09T05:48:08.303Z,58.03
2018-10-09T05:50:37.321Z,59.37
2018-10-09T05:53:06.051Z,57.83
2018-10-09T05:55:35.158Z,58.97
2018-10-09T05:58:03.857Z,62.03
2018-10-09T06:00:32.685Z,64.73
2018-10-09T06:03:01.499Z,66.97
2018-10-09T06:05:30.690Z,65.57
2018-10-09T06:07:59.273Z,60.23
2018-10-09T06:10:27.850Z,58.07
2018-10-09T06:12:56.442Z,55.77
2018-10-09T06:15:25.183Z,50.63
2018-10-09T06:17:54.055Z,48.70
2018-10-09T06:20:22.715Z,47.00
2018-10-09T06:22:51.559Z,50.27
2018-10-09T06:25:20.176Z,47.73
2018-10-09T06:27:48.748Z,46.33
2018-10-09T06:30:17.314Z,47.87
2018-10-09T06:32:45.898Z,46.33
2018-10-09T06:35:14.607Z,45.80
2018-10-09T06:37:43.341Z,44.20
2018-10-09T06:40:11.918Z,44.40
2018-10-09T06:42:40.529Z,43.10
2018-10-09T06:45:09.266Z,42.40
2018-10-09T06:47:38.626Z,41.67
2018-10-09T06:50:07.517Z,43.70
2018-10-09T06:52:36.243Z,43.40
2018-10-09T06:55:05.045Z,43.13
2018-10-09T06:57:33.731Z,43.40
2018-10-09T07:00:02.350Z,45.83
2018-10-09T07:02:31.170Z,46.63
2018-10-09T07:04:59.723Z,44.97
2018-10-09T07:07:28.271Z,42.73
2018-10-09T07:09:56.930Z,39.73
2018-10-09T07:12:25.714Z,40.63
2018-10-09T07:14:54.423Z,39.33
2018-10-09T07:17:23.064Z,40.93
2018-10-09T07:19:51.703Z,39.53
2018-10-09T07:22:20.258Z,38.77
2018-10-09T07:24:48.808Z,40.47
2018-10-09T07:27:17.519Z,39.97
2018-10-09T07:29:46.204Z,39.20
2018-10-09T07:32:14.845Z,39.03
2018-10-09T07:34:43.396Z,39.03
2018-10-09T07:37:11.936Z,39.40
2018-10-09T07:39:40.518Z,41.13
2018-10-09T07:42:09.120Z,41.83
2018-10-09T07:44:38.274Z,40.73
2018-10-09T07:47:06.927Z,40.67
2018-10-09T07:49:35.569Z,43.60
2018-10-09T07:52:04.163Z,41.27
2018-10-09T07:54:32.803Z,41.90
2018-10-09T07:57:01.390Z,41.60
2018-10-09T07:59:29.976Z,40.10
2018-10-09T08:01:58.689Z,41.17
2018-10-09T08:04:27.421Z,40.93
2018-10-09T08:06:56.009Z,42.50
2018-10-09T08:09:24.574Z,41.23
2018-10-09T08:11:53.143Z,40.77
2018-10-09T08:14:21.713Z,42.77
2018-10-09T08:16:50.366Z,41.43
2018-10-09T08:19:18.985Z,41.13
2018-10-09T08:21:48.122Z,41.97
2018-10-09T08:24:16.885Z,43.27
2018-10-09T08:26:45.445Z,42.70
2018-10-09T08:29:14.054Z,42.93
2018-10-09T08:31:42.644Z,43.90
2018-10-09T08:34:13.346Z,43.80
2018-10-09T08:36:41.898Z,42.80
2018-10-09T08:39:10.510Z,42.97
2018-10-09T08:41:39.157Z,41.50
2018-10-09T08:44:07.709Z,41.30
2018-10-09T08:46:36.254Z,42.27
2018-10-09T08:49:04.809Z,44.53
2018-10-09T08:51:33.386Z,42.10
2018-10-09T08:54:01.990Z,44.87
2018-10-09T08:56:30.630Z,44.63
2018-10-09T08:58:59.345Z,46.83
2018-10-09T09:01:28.099Z,45.00
2018-10-09T09:03:56.695Z,42.83
2018-10-09T09:06:25.346Z,42.87
2018-10-09T09:08:53.906Z,43.93
2018-10-09T09:11:22.444Z,42.77
2018-10-09T09:13:51.081Z,44.60
2018-10-09T09:16:19.984Z,43.43
2018-10-09T09:18:48.594Z,42.43
2018-10-09T09:21:17.256Z,43.07
2018-10-09T09:23:45.936Z,40.53
2018-10-09T09:26:14.520Z,37.47
2018-10-09T09:28:43.223Z,40.47
2018-10-09T09:31:11.831Z,41.50
2018-10-09T09:33:40.406Z,40.40
2018-10-09T09:36:09.059Z,38.50
2018-10-09T09:38:37.613Z,40.07
2018-10-09T09:41:06.674Z,41.83
2018-10-09T09:43:35.274Z,40.00
2018-10-09T09:46:03.863Z,40.07
2018-10-09T09:48:32.850Z,40.83
2018-10-09T09:51:01.514Z,40.80
2018-10-09T09:53:30.221Z,39.13
2018-10-09T09:55:58.860Z,39.53
2018-10-09T09:58:27.506Z,40.30
2018-10-09T10:00:57.498Z,39.87
2018-10-09T10:03:26.889Z,37.17
2018-10-09T10:05:55.613Z,37.70
2018-10-09T10:08:24.239Z,36.27
2018-10-09T10:10:52.814Z,35.97
2018-10-09T10:13:21.429Z,34.87
2018-10-09T10:15:50.065Z,34.13
2018-10-09T10:18:18.774Z,35.23
2018-10-09T10:20:47.388Z,34.73
2018-10-09T10:23:15.950Z,33.37
2018-10-09T10:25:44.495Z,35.17
2018-10-09T10:28:13.246Z,32.63
2018-10-09T10:30:42.097Z,34.57
2018-10-09T10:33:10.801Z,32.63
2018-10-09T10:35:39.419Z,32.07
2018-10-09T10:38:08.491Z,30.07
2018-10-09T10:40:37.162Z,31.90
2018-10-09T10:43:06.006Z,30.73
2018-10-09T10:45:34.595Z,29.20
2018-10-09T10:48:03.579Z,28.50
2018-10-09T10:50:32.231Z,26.13
2018-10-09T10:53:00.791Z,26.77
2018-10-09T10:55:29.377Z,26.33
2018-10-09T10:57:58.058Z,25.87
2018-10-09T11:00:26.626Z,25.97
2018-10-09T11:02:55.192Z,26.03
2018-10-09T11:05:23.876Z,26.03
2018-10-09T11:07:52.449Z,26.50
2018-10-09T11:10:21.250Z,21.13
2018-10-09T11:12:49.776Z,20.17
2018-10-09T11:15:18.349Z,20.83
2018-10-09T11:17:46.910Z,23.10
2018-10-09T11:20:16.069Z,20.77
2018-10-09T11:22:44.785Z,23.73
2018-10-09T11:25:13.481Z,22.07
2018-10-09T11:27:42.079Z,23.33
2018-10-09T11:30:11.000Z,26.40
2018-10-09T11:32:39.641Z,23.70
2018-10-09T11:35:08.419Z,19.43
2018-10-09T11:37:36.978Z,18.90
2018-10-09T11:40:05.575Z,18.30
2018-10-09T11:42:34.249Z,19.43
2018-10-09T11:45:02.899Z,18.13
2018-10-09T11:47:31.490Z,17.97
2018-10-09T11:50:00.034Z,16.07
2018-10-09T11:52:28.639Z,16.50
2018-10-09T11:54:57.186Z,17.53
2018-10-09T11:57:25.847Z,17.40
2018-10-09T11:59:54.593Z,17.70
2018-10-09T12:02:23.257Z,16.90
2018-10-09T12:04:51.797Z,15.90
2018-10-09T12:07:20.734Z,14.93
2018-10-09T12:09:49.270Z,15.53
2018-10-09T12:12:18.266Z,15.40
2018-10-09T12:14:46.811Z,15.70
2018-10-09T12:17:15.394Z,16.17
2018-10-09T12:19:44.060Z,14.77
2018-10-09T12:22:12.661Z,13.40
2018-10-09T12:24:41.243Z,15.37
2018-10-09T12:27:09.842Z,13.93
2018-10-09T12:29:38.598Z,15.23
2018-10-09T12:32:07.158Z,14.03
2018-10-09T12:34:35.806Z,14.23
2018-10-09T12:37:04.438Z,14.30
2018-10-09T12:39:33.011Z,12.83
2018-10-09T12:42:01.596Z,12.93
2018-10-09T12:44:30.197Z,12.67
2018-10-09T12:46:58.927Z,12.50
2018-10-09T12:49:27.515Z,13.30
2018-10-09T12:51:56.188Z,12.07
2018-10-09T12:54:24.929Z,11.57
2018-10-09T12:56:53.505Z,11.87
2018-10-09T12:59:22.077Z,12.30
2018-10-09T13:01:50.695Z,11.17
2018-10-09T13:04:19.237Z,10.83
2018-10-09T13:06:47.933Z,11.80
2018-10-09T13:09:17.029Z,11.13
2018-10-09T13:11:45.801Z,10.57
2018-10-09T13:14:14.426Z,9.87
2018-10-09T13:16:42.979Z,10.70
2018-10-09T13:19:11.546Z,10.10
2018-10-09T13:21:40.980Z,9.97
2018-10-09T13:24:09.579Z,10.33
2018-10-09T13:26:38.367Z,8.70
2018-10-09T13:29:06.946Z,8.23
2018-10-09T13:31:35.515Z,9.50
2018-10-09T13:34:04.112Z,9.43
2018-10-09T13:36:32.830Z,8.40
2018-10-09T13:39:01.417Z,9.20
2018-10-09T13:41:30.028Z,9.20
2018-10-09T13:43:58.627Z,9.70
2018-10-09T13:46:27.557Z,9.20
2018-10-09T13:48:56.122Z,9.53
2018-10-09T13:51:24.762Z,8.87
2018-10-09T13:53:53.486Z,9.93
2018-10-09T13:56:22.043Z,9.60
2018-10-09T13:58:50.591Z,9.30
2018-10-09T14:01:19.317Z,10.10
2018-10-09T14:03:48.096Z,10.67
2018-10-09T14:06:17.001Z,10.50
2018-10-09T14:08:45.702Z,10.00
2018-10-09T14:11:14.244Z,9.00
2018-10-09T14:13:42.810Z,10.07
2018-10-09T14:16:11.434Z,10.10
2018-10-09T14:18:40.159Z,10.00
2018-10-09T14:21:09.007Z,9.57
2018-10-09T14:23:37.670Z,9.17
2018-10-09T14:26:06.234Z,9.67
2018-10-09T14:28:34.836Z,9.47
2018-10-09T14:31:03.572Z,9.67
2018-10-09T14:33:32.130Z,9.27
2018-10-09T14:36:00.750Z,9.40
2018-10-09T14:38:29.814Z,27.07
2018-10-09T14:40:58.574Z,20.40
2018-10-09T14:43:27.157Z,17.03
2018-10-09T14:45:55.880Z,12.20
2018-10-09T14:48:24.453Z,11.80
2018-10-09T14:50:53.062Z,11.53
2018-10-09T14:53:21.655Z,9.50
2018-10-09T14:55:50.330Z,9.00
2018-10-09T14:58:19.129Z,10.93
2018-10-09T15:00:47.683Z,10.37
2018-10-09T15:03:16.278Z,10.40
2018-10-09T15:05:44.979Z,11.17
2018-10-09T15:08:13.553Z,10.27
2018-10-09T15:10:42.835Z,10.27
2018-10-09T15:13:11.498Z,10.87
2018-10-09T15:15:40.198Z,10.77
2018-10-09T15:18:09.018Z,11.63
2018-10-09T15:20:37.641Z,11.40
2018-10-09T15:23:06.994Z,12.03
2018-10-09T15:25:35.585Z,11.43
2018-10-09T15:28:04.638Z,11.93
2018-10-09T15:30:33.285Z,11.33
2018-10-09T15:33:02.365Z,13.20
2018-10-09T15:35:31.049Z,16.73
2018-10-09T15:37:59.769Z,20.40
2018-10-09T15:40:28.343Z,20.77
2018-10-09T15:42:56.961Z,18.07
2018-10-09T15:45:25.510Z,20.07
2018-10-09T15:47:54.150Z,18.87
2018-10-09T15:50:22.859Z,16.27
2018-10-09T15:52:51.765Z,20.63
2018-10-09T15:55:20.702Z,23.13
2018-10-09T15:57:49.293Z,23.17
2018-10-09T16:00:17.884Z,45.53
2018-10-09T16:02:46.437Z,30.83
2018-10-09T16:05:14.995Z,30.13
2018-10-09T16:07:43.686Z,37.27
2018-10-09T16:10:12.337Z,57.00
2018-10-09T16:12:40.987Z,70.43
2018-10-09T16:15:09.742Z,75.90
2018-10-09T16:17:38.436Z,61.20
2018-10-09T16:20:07.265Z,54.73
2018-10-09T16:22:36.333Z,49.17
2018-10-09T16:25:05.046Z,75.90
2018-10-09T16:27:33.770Z,82.93
2018-10-09T16:30:02.482Z,92.20
2018-10-09T16:32:31.483Z,72.93
2018-10-09T16:35:00.207Z,57.23
2018-10-09T16:37:28.809Z,60.10
2018-10-09T16:39:57.482Z,73.17
2018-10-09T16:42:26.195Z,48.30
2018-10-09T16:44:54.801Z,57.90
2018-10-09T16:47:23.469Z,72.70
2018-10-09T16:49:52.181Z,76.47
2018-10-09T16:52:20.747Z,77.50
2018-10-09T16:54:49.533Z,44.07
2018-10-09T16:57:18.154Z,43.23
2018-10-09T16:59:46.716Z,49.77
2018-10-09T17:02:15.290Z,93.80
2018-10-09T17:04:44.766Z,102.07
2018-10-09T17:07:13.419Z,110.17
2018-10-09T17:09:42.403Z,95.30
2018-10-09T17:12:10.975Z,99.63
2018-10-09T17:14:39.535Z,88.17
2018-10-09T17:17:08.114Z,78.20
2018-10-09T17:19:36.715Z,72.00
2018-10-09T17:22:05.616Z,76.17
2018-10-09T17:24:34.311Z,55.50
2018-10-09T17:27:02.886Z,86.13
2018-10-09T17:29:31.429Z,174.93
2018-10-09T17:32:00.002Z,103.40
2018-10-09T17:34:28.650Z,78.23
2018-10-09T17:36:58.950Z,141.00
2018-10-09T17:39:27.638Z,170.40
2018-10-09T17:41:56.431Z,148.90
2018-10-09T17:44:25.192Z,144.97
2018-10-09T17:46:53.965Z,149.43
2018-10-09T17:49:22.823Z,151.37
2018-10-09T17:51:52.758Z,149.83
2018-10-09T17:54:21.466Z,160.17
2018-10-09T17:56:50.870Z,185.00
2018-10-09T17:59:19.607Z,215.97
2018-10-09T18:01:48.508Z,320.33
2018-10-09T18:04:17.166Z,345.13
2018-10-09T18:06:46.496Z,413.03
2018-10-09T18:09:15.129Z,209.03
2018-10-09T18:11:43.795Z,147.03
2018-10-09T18:14:12.812Z,154.37
2018-10-09T18:16:41.402Z,143.70
2018-10-09T18:19:09.986Z,124.97
2018-10-09T18:21:38.597Z,107.10
2018-10-09T18:24:07.866Z,97.63
2018-10-09T18:26:36.546Z,83.40
2018-10-09T18:29:05.225Z,122.10
2018-10-09T18:31:33.850Z,106.13
2018-10-09T18:34:02.566Z,72.00
2018-10-09T18:36:31.744Z,52.30
2018-10-09T18:39:00.314Z,49.00
2018-10-09T18:41:29.316Z,44.17
2018-10-09T18:43:57.991Z,44.63
2018-10-09T18:46:26.746Z,50.60
2018-10-09T18:48:55.373Z,61.10
2018-10-09T18:51:23.979Z,56.40
2018-10-09T18:53:52.712Z,45.43
2018-10-09T18:56:21.269Z,40.47
2018-10-09T18:58:49.853Z,45.20
2018-10-09T19:01:18.720Z,48.23
2018-10-09T19:03:47.337Z,42.00
2018-10-09T19:06:15.907Z,44.17
2018-10-09T19:08:44.609Z,41.57
2018-10-09T19:11:13.174Z,39.77
2018-10-09T19:13:41.785Z,41.40
2018-10-09T19:16:10.350Z,39.33
2018-10-09T19:18:39.002Z,39.47
2018-10-09T19:21:07.554Z,40.07
2018-10-09T19:23:36.470Z,40.53
2018-10-09T19:26:05.138Z,40.50
2018-10-09T19:28:33.673Z,41.00
2018-10-09T19:31:02.260Z,47.43
2018-10-09T19:33:30.850Z,60.03
2018-10-09T19:35:59.619Z,65.93
2018-10-09T19:38:28.324Z,60.13
2018-10-09T19:40:56.889Z,53.20
2018-10-09T19:43:25.419Z,53.97
2018-10-09T19:45:53.992Z,56.10
2018-10-09T19:48:22.558Z,50.63
2018-10-09T19:50:51.310Z,50.97
2018-10-09T19:53:20.131Z,49.93
2018-10-09T19:55:48.727Z,49.60
2018-10-09T19:58:17.648Z,50.80
2018-10-09T20:00:46.277Z,50.43
2018-10-09T20:03:15.665Z,50.93
2018-10-09T20:05:44.221Z,51.23
2018-10-09T20:08:12.854Z,54.03
2018-10-09T20:10:41.413Z,53.03
2018-10-09T20:13:10.061Z,52.87
2018-10-09T20:15:38.899Z,52.80
2018-10-09T20:18:07.600Z,50.07
2018-10-09T20:20:36.198Z,49.40
2018-10-09T20:23:04.786Z,47.67
2018-10-09T20:25:33.359Z,48.67
2018-10-09T20:28:01.948Z,46.80
2018-10-09T20:30:30.828Z,49.33
2018-10-09T20:32:59.527Z,49.37
2018-10-09T20:35:28.099Z,48.80
2018-10-09T20:37:56.762Z,49.37
2018-10-09T20:40:25.333Z,48.80
2018-10-09T20:42:53.887Z,50.90
2018-10-09T20:45:22.486Z,50.60
2018-10-09T20:47:51.081Z,51.37
2018-10-09T20:50:19.740Z,51.50
2018-10-09T20:52:48.286Z,53.50
2018-10-09T20:55:16.863Z,54.03
2018-10-09T20:57:45.447Z,52.67
2018-10-09T21:00:14.385Z,51.97
2018-10-09T21:02:42.972Z,52.57
2018-10-09T21:05:11.667Z,50.30
2018-10-09T21:07:40.322Z,49.13
2018-10-09T21:10:08.941Z,50.67
2018-10-09T21:12:37.571Z,51.70
2018-10-09T21:15:06.209Z,51.27
2018-10-09T21:17:34.880Z,52.20
2018-10-09T21:20:03.565Z,52.67
2018-10-09T21:22:32.305Z,51.70
2018-10-09T21:25:00.953Z,52.30
2018-10-09T21:27:29.538Z,50.40
2018-10-09T21:29:58.588Z,50.07
2018-10-09T21:32:27.563Z,50.03
2018-10-09T21:34:56.126Z,48.47
2018-10-09T21:37:24.732Z,50.83
2018-10-09T21:39:53.445Z,51.30
2018-10-09T21:42:22.062Z,52.00
2018-10-09T21:44:50.661Z,53.03
2018-10-09T21:47:19.230Z,55.57
2018-10-09T21:49:47.861Z,51.33
2018-10-09T21:52:16.587Z,49.33
2018-10-09T21:54:45.189Z,48.20
2018-10-09T21:57:14.629Z,48.30
2018-10-09T21:59:43.214Z,50.13
2018-10-09T22:02:11.894Z,50.33
2018-10-09T22:04:40.453Z,50.90
2018-10-09T22:07:09.085Z,50.40
2018-10-09T22:09:37.669Z,49.73
2018-10-09T22:12:06.254Z,49.97
2018-10-09T22:14:34.945Z,50.20
2018-10-09T22:17:03.552Z,48.20
2018-10-09T22:19:32.286Z,48.33
2018-10-09T22:22:01.053Z,47.40
2018-10-09T22:24:29.877Z,48.37
2018-10-09T22:26:58.673Z,45.50
2018-10-09T22:29:27.425Z,47.13
2018-10-09T22:31:56.014Z,45.30
2018-10-09T22:34:24.820Z,46.27
2018-10-09T22:36:53.415Z,45.37
2018-10-09T22:39:22.135Z,45.87
2018-10-09T22:41:50.678Z,46.03
2018-10-09T22:44:19.901Z,46.87
2018-10-09T22:46:48.573Z,47.13
2018-10-09T22:49:17.403Z,47.07
2018-10-09T22:51:46.045Z,47.67
2018-10-09T22:54:14.856Z,48.57
2018-10-09T22:56:43.502Z,50.20
2018-10-09T22:59:12.046Z,50.17
2018-10-09T23:01:40.588Z,47.63
2018-10-09T23:04:09.515Z,49.43
2018-10-09T23:06:38.138Z,49.70
2018-10-09T23:09:09.167Z,49.80
2018-10-09T23:11:38.119Z,47.70
2018-10-09T23:14:06.858Z,46.10
2018-10-09T23:16:35.822Z,46.23
2018-10-09T23:19:04.516Z,48.03
2018-10-09T23:21:33.219Z,46.70
2018-10-09T23:24:01.777Z,47.33
2018-10-09T23:26:30.364Z,46.77
2018-10-09T23:28:58.945Z,49.37
2018-10-09T23:31:27.477Z,49.93
2018-10-09T23:33:56.206Z,50.53
2018-10-09T23:36:24.825Z,50.77
2018-10-09T23:38:53.400Z,50.77
2018-10-09T23:41:21.999Z,50.10
2018-10-09T23:43:50.566Z,50.73
2018-10-09T23:46:19.108Z,50.90
2018-10-09T23:48:47.890Z,49.90
2018-10-09T23:51:16.694Z,47.97
2018-10-09T23:53:45.797Z,49.53
2018-10-09T23:56:14.353Z,47.93
2018-10-09T23:58:42.909Z,47.67
